createdAt,value
2022-10-26T00:00:56.567Z,100338.69
2022-10-26T00:03:27.184Z,100329.88
2022-10-26T00:05:54.034Z,100315.34
2022-10-26T00:08:25.330Z,100314.75
2022-10-26T00:10:52.062Z,100303.09
2022-10-26T00:13:18.804Z,100308.16
2022-10-26T00:15:45.710Z,100310.63
2022-10-26T00:18:12.544Z,100307.16
2022-10-26T00:20:39.337Z,100309.81
2022-10-26T00:23:06.091Z,100310.84
2022-10-26T00:25:32.868Z,100309.81
2022-10-26T00:27:59.775Z,100298.16
2022-10-26T00:30:26.933Z,100309.19
2022-10-26T00:32:53.855Z,100310.38
2022-10-26T00:35:23.262Z,100302.19
2022-10-26T00:37:55.787Z,100298.13
2022-10-26T00:40:28.602Z,100301.59
2022-10-26T00:42:55.242Z,100300.56
2022-10-26T00:45:29.049Z,100305.06
2022-10-26T00:48:11.539Z,100295.84
2022-10-26T00:50:43.951Z,100292.19
2022-10-26T00:53:12.036Z,100279.25
2022-10-26T00:55:40.132Z,100289.69
2022-10-26T00:58:09.061Z,100288.47
2022-10-26T01:00:35.691Z,100292.56
2022-10-26T01:03:09.266Z,100289.09
2022-10-26T01:05:37.826Z,100273.50
2022-10-26T01:08:04.566Z,100274.34
2022-10-26T01:10:31.203Z,100275.16
2022-10-26T01:12:59.030Z,100267.97
2022-10-26T01:15:31.517Z,100266.97
2022-10-26T01:18:00.963Z,100267.75
2022-10-26T01:20:45.350Z,100271.22
2022-10-26T01:23:11.912Z,100272.88
2022-10-26T01:25:53.523Z,100277.78
2022-10-26T01:28:52.254Z,100275.31
2022-10-26T01:31:23.388Z,100268.16
2022-10-26T01:33:59.332Z,100262.84
2022-10-26T01:39:25.155Z,100258.34
2022-10-26T01:41:55.247Z,100254.84
2022-10-26T01:44:25.647Z,100257.53
2022-10-26T01:46:54.363Z,100260.38
2022-10-26T01:49:23.301Z,100264.69
2022-10-26T01:51:50.747Z,100263.88
2022-10-26T01:54:17.723Z,100265.91
2022-10-26T01:56:52.279Z,100265.50
2022-10-26T01:59:31.266Z,100270.38
2022-10-26T02:02:14.438Z,100277.16
2022-10-26T02:04:59.179Z,100274.47
2022-10-26T02:07:40.331Z,100271.00
2022-10-26T02:10:19.039Z,100267.53
2022-10-26T02:12:49.674Z,100269.38
2022-10-26T02:15:25.190Z,100268.53
2022-10-26T02:17:59.259Z,100255.03
2022-10-26T02:20:28.700Z,100253.41
2022-10-26T02:22:56.349Z,100256.06
2022-10-26T02:25:30.912Z,100249.91
2022-10-26T02:28:03.120Z,100244.59
2022-10-26T02:30:29.741Z,100242.94
2022-10-26T02:32:58.212Z,100239.06
2022-10-26T02:35:30.236Z,100233.50
2022-10-26T02:37:58.844Z,100237.81
2022-10-26T02:40:26.696Z,100239.66
2022-10-26T02:42:54.277Z,100246.81
2022-10-26T02:45:30.909Z,100246.03
2022-10-26T02:47:58.043Z,100242.09
2022-10-26T02:50:30.091Z,100246.41
2022-10-26T02:52:59.745Z,100241.91
2022-10-26T02:55:33.393Z,100242.91
2022-10-26T02:58:02.634Z,100233.50
2022-10-26T03:00:30.005Z,100226.56
2022-10-26T03:02:58.281Z,100223.50
2022-10-26T03:05:26.235Z,100223.31
2022-10-26T03:07:53.322Z,100219.00
2022-10-26T03:10:20.644Z,100212.66
2022-10-26T03:12:47.442Z,100214.50
2022-10-26T03:15:14.286Z,100206.13
2022-10-26T03:17:40.954Z,100211.47
2022-10-26T03:20:07.960Z,100212.03
2022-10-26T03:22:34.591Z,100206.72
2022-10-26T03:25:01.263Z,100212.03
2022-10-26T03:27:27.879Z,100216.78
2022-10-26T03:29:54.472Z,100208.41
2022-10-26T03:32:21.191Z,100209.44
2022-10-26T03:34:47.794Z,100207.38
2022-10-26T03:37:14.356Z,100207.38
2022-10-26T03:39:41.029Z,100202.28
2022-10-26T03:42:07.619Z,100201.66
2022-10-26T03:44:34.335Z,100206.97
2022-10-26T03:47:00.992Z,100212.50
2022-10-26T03:49:27.569Z,100215.16
2022-10-26T03:51:54.161Z,100221.09
2022-10-26T03:54:20.753Z,100226.22
2022-10-26T03:56:51.254Z,100234.22
2022-10-26T03:59:20.859Z,100234.22
2022-10-26T04:01:47.505Z,100239.72
2022-10-26T04:04:14.142Z,100224.59
2022-10-26T04:06:40.860Z,100232.38
2022-10-26T04:09:08.399Z,100234.38
2022-10-26T04:11:43.064Z,100231.50
2022-10-26T04:14:09.765Z,100235.78
2022-10-26T04:16:36.382Z,100236.59
2022-10-26T04:19:03.022Z,100231.91
2022-10-26T04:21:33.080Z,100236.16
2022-10-26T04:23:59.708Z,100232.28
2022-10-26T04:26:26.296Z,100234.72
2022-10-26T04:28:56.774Z,100237.16
2022-10-26T04:31:31.191Z,100237.16
2022-10-26T04:33:57.926Z,100231.84
2022-10-26T04:36:24.545Z,100235.56
2022-10-26T04:38:51.296Z,100240.63
2022-10-26T04:41:17.901Z,100246.13
2022-10-26T04:43:44.679Z,100247.34
2022-10-26T04:46:16.715Z,100247.34
2022-10-26T04:48:43.687Z,100248.16
2022-10-26T04:51:10.379Z,100250.22
2022-10-26T04:53:36.955Z,100256.38
2022-10-26T04:56:03.705Z,100252.66
2022-10-26T04:58:30.632Z,100257.56
2022-10-26T05:00:57.319Z,100260.03
2022-10-26T05:03:23.986Z,100258.97
2022-10-26T05:05:50.622Z,100260.03
2022-10-26T05:08:17.310Z,100268.81
2022-10-26T05:10:47.829Z,100275.75
2022-10-26T05:13:14.479Z,100274.75
2022-10-26T05:15:41.173Z,100275.75
2022-10-26T05:18:09.200Z,100284.38
2022-10-26T05:20:36.601Z,100289.06
2022-10-26T05:23:07.143Z,100297.28
2022-10-26T05:25:35.546Z,100308.72
2022-10-26T05:28:03.002Z,100308.97
2022-10-26T05:30:30.211Z,100314.69
2022-10-26T05:32:57.351Z,100315.50
2022-10-26T05:35:24.135Z,100314.88
2022-10-26T05:37:50.725Z,100309.56
2022-10-26T05:40:17.860Z,100311.41
2022-10-26T05:42:44.868Z,100313.47
2022-10-26T05:45:12.063Z,100321.66
2022-10-26T05:47:42.533Z,100321.47
2022-10-26T05:50:09.507Z,100328.63
2022-10-26T05:52:40.673Z,100332.53
2022-10-26T05:55:08.438Z,100337.06
2022-10-26T05:57:36.077Z,100338.28
2022-10-26T06:00:04.065Z,100343.81
2022-10-26T06:02:35.395Z,100347.53
2022-10-26T06:05:05.859Z,100345.06
2022-10-26T06:07:33.541Z,100342.41
2022-10-26T06:10:00.253Z,100339.94
2022-10-26T06:12:27.121Z,100341.38
2022-10-26T06:14:54.040Z,100336.25
2022-10-26T06:17:35.690Z,100344.25
2022-10-26T06:23:36.261Z,100345.47
2022-10-26T06:26:10.152Z,100346.72
2022-10-26T06:28:55.286Z,100357.38
2022-10-26T06:31:22.260Z,100352.25
2022-10-26T06:33:48.968Z,100359.00
2022-10-26T06:36:15.658Z,100350.22
2022-10-26T06:38:44.876Z,100356.94
2022-10-26T06:41:19.517Z,100360.66
2022-10-26T06:43:46.330Z,100361.88
2022-10-26T06:46:44.761Z,100360.84
2022-10-26T06:49:11.343Z,100371.72
2022-10-26T06:51:44.734Z,100381.13
2022-10-26T06:54:26.078Z,100379.88
2022-10-26T06:56:53.514Z,100383.09
2022-10-26T06:59:31.926Z,100388.84
2022-10-26T07:02:01.694Z,100383.28
2022-10-26T07:04:31.051Z,100375.72
2022-10-26T07:06:57.806Z,100381.25
2022-10-26T07:09:24.499Z,100386.81
2022-10-26T07:11:51.145Z,100394.00
2022-10-26T07:14:17.897Z,100384.34
2022-10-26T07:16:44.550Z,100388.88
2022-10-26T07:19:11.161Z,100383.53
2022-10-26T07:21:38.078Z,100391.53
2022-10-26T07:24:04.792Z,100391.31
2022-10-26T07:26:31.382Z,100405.66
2022-10-26T07:28:58.086Z,100410.97
2022-10-26T07:31:32.195Z,100420.38
2022-10-26T07:33:58.832Z,100426.31
2022-10-26T07:36:25.470Z,100423.84
2022-10-26T07:38:53.320Z,100423.84
2022-10-26T07:41:28.036Z,100425.31
2022-10-26T07:43:54.604Z,100418.13
2022-10-26T07:46:21.331Z,100421.38
2022-10-26T07:48:47.905Z,100430.19
2022-10-26T07:51:14.922Z,100440.63
2022-10-26T07:53:41.655Z,100429.78
2022-10-26T07:56:08.490Z,100439.19
2022-10-26T07:58:35.223Z,100438.78
2022-10-26T08:01:09.098Z,100442.84
2022-10-26T08:03:35.830Z,100447.34
2022-10-26T08:06:04.310Z,100455.97
2022-10-26T08:08:31.691Z,100459.00
2022-10-26T08:10:58.631Z,100456.34
2022-10-26T08:13:25.539Z,100465.97
2022-10-26T08:15:59.142Z,100463.31
2022-10-26T08:18:25.806Z,100472.50
2022-10-26T08:20:52.614Z,100466.56
2022-10-26T08:23:19.450Z,100459.75
2022-10-26T08:25:46.093Z,100472.69
2022-10-26T08:28:12.726Z,100475.94
2022-10-26T08:30:39.459Z,100485.34
2022-10-26T08:33:07.448Z,100471.84
2022-10-26T08:35:34.701Z,100484.94
2022-10-26T08:38:01.434Z,100474.88
2022-10-26T08:40:32.791Z,100476.72
2022-10-26T08:43:05.635Z,100478.38
2022-10-26T08:45:44.381Z,100478.16
2022-10-26T08:48:24.586Z,100487.13
2022-10-26T08:50:51.183Z,100495.53
2022-10-26T08:53:29.728Z,100491.66
2022-10-26T08:55:58.249Z,100496.78
2022-10-26T08:58:28.918Z,100494.72
2022-10-26T09:00:55.674Z,100492.84
2022-10-26T09:03:22.334Z,100491.81
2022-10-26T09:05:52.099Z,100493.66
2022-10-26T09:08:31.607Z,100498.59
2022-10-26T09:11:16.816Z,100491.19
2022-10-26T09:13:49.168Z,100492.81
2022-10-26T09:16:16.455Z,100477.44
2022-10-26T09:18:49.161Z,100484.19
2022-10-26T09:21:34.338Z,100475.78
2022-10-26T09:24:22.144Z,100479.03
2022-10-26T09:26:56.079Z,100485.78
2022-10-26T09:29:28.169Z,100483.69
2022-10-26T09:31:56.086Z,100484.13
2022-10-26T09:34:27.323Z,100488.19
2022-10-26T09:36:55.545Z,100502.94
2022-10-26T09:39:38.783Z,100513.38
2022-10-26T09:42:25.651Z,100506.19
2022-10-26T09:44:55.563Z,100508.88
2022-10-26T09:47:39.022Z,100522.81
2022-10-26T09:50:05.804Z,100512.97
2022-10-26T09:52:32.389Z,100512.97
2022-10-26T09:54:59.175Z,100506.63
2022-10-26T09:57:26.312Z,100519.72
2022-10-26T09:59:55.843Z,100519.72
2022-10-26T10:02:45.177Z,100525.66
2022-10-26T10:05:56.886Z,100527.28
2022-10-26T10:08:24.618Z,100538.72
2022-10-26T10:10:59.546Z,100538.50
2022-10-26T10:13:30.883Z,100539.34
2022-10-26T10:16:25.857Z,100543.41
2022-10-26T10:18:56.499Z,100548.16
2022-10-26T10:21:38.187Z,100550.00
2022-10-26T10:24:22.371Z,100563.53
2022-10-26T10:27:12.357Z,100568.47
2022-10-26T10:29:50.096Z,100577.25
2022-10-26T10:32:17.713Z,100581.41
2022-10-26T10:34:44.549Z,100587.56
2022-10-26T10:37:24.193Z,100590.00
2022-10-26T10:39:59.715Z,100591.41
2022-10-26T10:42:31.766Z,100593.69
2022-10-26T10:44:58.831Z,100603.91
2022-10-26T10:47:32.669Z,100614.16
2022-10-26T10:50:04.200Z,100619.88
2022-10-26T10:52:35.585Z,100619.69
2022-10-26T10:55:15.388Z,100613.28
2022-10-26T10:57:44.790Z,100633.19
2022-10-26T11:00:12.671Z,100623.72
2022-10-26T11:02:39.405Z,100628.81
2022-10-26T11:05:23.419Z,100634.78
2022-10-26T11:07:55.928Z,100634.94
2022-10-26T11:10:24.956Z,100627.34
2022-10-26T11:12:56.998Z,100637.41
2022-10-26T11:15:28.361Z,100644.78
2022-10-26T11:17:54.931Z,100648.03
2022-10-26T11:20:23.235Z,100655.00
2022-10-26T11:22:53.250Z,100656.19
2022-10-26T11:25:25.388Z,100656.59
2022-10-26T11:27:54.764Z,100649.56
2022-10-26T11:30:22.351Z,100667.38
2022-10-26T11:32:52.120Z,100664.06
2022-10-26T11:35:21.945Z,100676.56
2022-10-26T11:38:04.099Z,100680.81
2022-10-26T11:40:30.703Z,100682.22
2022-10-26T11:43:26.400Z,100682.84
2022-10-26T11:46:08.388Z,100692.69
2022-10-26T11:48:43.483Z,100695.16
2022-10-26T11:51:19.027Z,100694.72
2022-10-26T11:53:46.970Z,100701.47
2022-10-26T11:56:16.626Z,100708.84
2022-10-26T11:58:44.597Z,100720.56
2022-10-26T12:01:14.177Z,100722.41
2022-10-26T12:03:46.705Z,100723.44
2022-10-26T12:06:19.333Z,100710.31
2022-10-26T12:08:48.092Z,100725.31
2022-10-26T12:11:42.005Z,100738.66
2022-10-26T12:14:08.554Z,100739.69
2022-10-26T12:16:47.134Z,100738.88
2022-10-26T12:19:20.289Z,100748.75
2022-10-26T12:21:53.920Z,100744.22
2022-10-26T12:24:26.134Z,100740.75
2022-10-26T12:26:54.055Z,100750.38
2022-10-26T12:29:23.399Z,100755.88
2022-10-26T12:31:50.964Z,100751.78
2022-10-26T12:34:24.977Z,100768.84
2022-10-26T12:36:57.656Z,100754.03
2022-10-26T12:39:29.625Z,100782.44
2022-10-26T12:41:58.232Z,100766.84
2022-10-26T12:44:38.059Z,100772.22
2022-10-26T12:47:05.315Z,100775.94
2022-10-26T12:49:50.409Z,100785.00
2022-10-26T12:52:28.669Z,100787.69
2022-10-26T12:55:04.075Z,100789.09
2022-10-26T12:57:52.600Z,100790.75
2022-10-26T13:00:23.536Z,100813.78
2022-10-26T13:03:06.943Z,100817.06
2022-10-26T13:05:45.755Z,100811.09
2022-10-26T13:08:13.850Z,100802.47
2022-10-26T13:10:49.192Z,100813.78
2022-10-26T13:13:23.104Z,100826.50
2022-10-26T13:15:54.146Z,100829.81
2022-10-26T13:18:21.645Z,100826.94
2022-10-26T13:21:00.816Z,100822.22
2022-10-26T13:23:28.785Z,100824.47
2022-10-26T13:26:02.514Z,100829.81
2022-10-26T13:28:38.437Z,100828.78
2022-10-26T13:31:11.874Z,100839.84
2022-10-26T13:33:41.043Z,100825.66
2022-10-26T13:36:28.015Z,100835.53
2022-10-26T13:38:54.880Z,100840.66
2022-10-26T13:41:37.305Z,100842.31
2022-10-26T13:44:05.641Z,100839.84
2022-10-26T13:46:36.209Z,100842.94
2022-10-26T13:49:08.869Z,100855.50
2022-10-26T13:51:39.724Z,100852.00
2022-10-26T13:54:25.642Z,100852.81
2022-10-26T13:56:55.120Z,100875.38
2022-10-26T13:59:39.029Z,100854.63
2022-10-26T14:02:35.123Z,100859.38
2022-10-26T14:05:12.602Z,100860.63
2022-10-26T14:07:58.638Z,100862.25
2022-10-26T14:10:47.783Z,100858.75
2022-10-26T14:13:16.155Z,100863.28
2022-10-26T14:15:48.579Z,100858.56
2022-10-26T14:18:19.079Z,100875.03
2022-10-26T14:21:08.924Z,100865.38
2022-10-26T14:23:36.719Z,100873.00
2022-10-26T14:26:07.563Z,100874.03
2022-10-26T14:28:42.307Z,100878.78
2022-10-26T14:31:41.620Z,100888.22
2022-10-26T14:34:23.640Z,100898.31
2022-10-26T14:36:51.095Z,100894.81
2022-10-26T14:39:41.310Z,100893.78
2022-10-26T14:42:33.021Z,100892.34
2022-10-26T14:45:01.149Z,100894.00
2022-10-26T14:47:33.436Z,100903.41
2022-10-26T14:52:58.783Z,100917.81
2022-10-26T14:55:30.489Z,100915.16
2022-10-26T14:58:17.504Z,100921.31
2022-10-26T15:00:52.606Z,100920.50
2022-10-26T15:03:24.692Z,100926.03
2022-10-26T15:05:54.673Z,100917.41
2022-10-26T15:08:52.661Z,100934.88
2022-10-26T15:11:37.395Z,100926.66
2022-10-26T15:14:15.415Z,100921.72
2022-10-26T15:16:54.649Z,100922.78
2022-10-26T15:19:25.668Z,100935.53
2022-10-26T15:21:53.736Z,100928.97
2022-10-26T15:24:22.426Z,100928.78
2022-10-26T15:26:49.400Z,100933.28
2022-10-26T15:29:34.755Z,100940.47
2022-10-26T15:32:02.095Z,100941.91
2022-10-26T15:34:31.431Z,100943.13
2022-10-26T15:36:59.805Z,100944.38
2022-10-26T15:39:31.648Z,100943.94
2022-10-26T15:42:04.341Z,100938.00
2022-10-26T15:44:33.383Z,100946.22
2022-10-26T15:47:08.651Z,100941.50
2022-10-26T15:49:38.897Z,100942.75
2022-10-26T15:52:12.611Z,100948.09
2022-10-26T15:54:42.213Z,100942.13
2022-10-26T15:57:23.136Z,100945.41
2022-10-26T15:59:56.278Z,100953.63
2022-10-26T16:02:25.047Z,100947.88
2022-10-26T16:04:53.101Z,100959.75
2022-10-26T16:07:28.710Z,100956.28
2022-10-26T16:09:55.918Z,100956.69
2022-10-26T16:12:24.166Z,100958.97
2022-10-26T16:15:04.931Z,100967.16
2022-10-26T16:17:44.204Z,100975.34
2022-10-26T16:20:20.974Z,100967.78
2022-10-26T16:22:53.744Z,100977.63
2022-10-26T16:25:25.438Z,100978.03
2022-10-26T16:28:09.906Z,100978.66
2022-10-26T16:30:47.477Z,100982.56
2022-10-26T16:33:14.623Z,100984.19
2022-10-26T16:35:41.328Z,100991.56
2022-10-26T16:38:08.453Z,101001.41
2022-10-26T16:40:35.963Z,100999.34
2022-10-26T16:43:04.561Z,101001.59
2022-10-26T16:45:32.638Z,101004.47
2022-10-26T16:48:00.571Z,101006.31
2022-10-26T16:50:28.727Z,101015.34
2022-10-26T16:52:58.062Z,101018.03
2022-10-26T16:55:25.717Z,101025.19
2022-10-26T16:57:53.369Z,101030.31
2022-10-26T17:00:21.958Z,101027.63
2022-10-26T17:02:50.564Z,101028.47
2022-10-26T17:05:19.492Z,101027.44
2022-10-26T17:07:49.356Z,101037.91
2022-10-26T17:10:18.465Z,101043.44
2022-10-26T17:12:48.678Z,101047.94
2022-10-26T17:15:19.718Z,101049.38
2022-10-26T17:17:48.965Z,101051.22
2022-10-26T17:20:17.735Z,101060.88
2022-10-26T17:22:46.628Z,101065.38
2022-10-26T17:25:13.985Z,101067.41
2022-10-26T17:27:47.576Z,101073.97
2022-10-26T17:30:17.541Z,101078.50
2022-10-26T17:32:46.995Z,101081.34
2022-10-26T17:35:17.750Z,101080.13
2022-10-26T17:37:55.995Z,101080.13
2022-10-26T17:40:39.131Z,101077.84
2022-10-26T17:43:23.847Z,101082.59
2022-10-26T17:46:09.555Z,101080.75
2022-10-26T17:48:47.635Z,101092.41
2022-10-26T17:51:16.635Z,101092.63
2022-10-26T17:54:03.234Z,101099.59
2022-10-26T17:56:49.224Z,101107.78
2022-10-26T17:59:25.577Z,101106.97
2022-10-26T18:01:57.043Z,101120.28
2022-10-26T18:04:23.922Z,101116.78
2022-10-26T18:06:54.566Z,101137.09
2022-10-26T18:09:36.335Z,101129.31
2022-10-26T18:12:16.283Z,101126.44
2022-10-26T18:14:57.488Z,101121.53
2022-10-26T18:17:24.780Z,101130.72
2022-10-26T18:19:52.146Z,101122.94
2022-10-26T18:22:19.440Z,101132.78
2022-10-26T18:24:48.131Z,101133.78
2022-10-26T18:27:15.665Z,101133.16
2022-10-26T18:29:43.418Z,101138.47
2022-10-26T18:32:10.299Z,101150.19
2022-10-26T18:34:37.675Z,101154.09
2022-10-26T18:37:04.966Z,101154.94
2022-10-26T18:39:32.085Z,101151.63
2022-10-26T18:41:58.733Z,101160.84
2022-10-26T18:44:25.424Z,101172.03
2022-10-26T18:46:54.715Z,101158.94
2022-10-26T18:49:21.444Z,101164.25
2022-10-26T18:51:48.708Z,101179.25
2022-10-26T18:54:15.555Z,101170.41
2022-10-26T18:56:42.716Z,101178.41
2022-10-26T18:59:09.487Z,101177.59
2022-10-26T19:01:39.571Z,101176.94
2022-10-26T19:04:07.442Z,101184.94
2022-10-26T19:06:34.051Z,101182.94
2022-10-26T19:09:00.995Z,101180.88
2022-10-26T19:11:28.243Z,101178.19
2022-10-26T19:13:55.248Z,101184.13
2022-10-26T19:16:43.949Z,101185.13
2022-10-26T19:19:10.725Z,101183.69
2022-10-26T19:21:41.456Z,101191.28
2022-10-26T19:24:11.881Z,101191.28
2022-10-26T19:26:42.402Z,101195.56
2022-10-26T19:29:13.938Z,101194.53
2022-10-26T19:31:40.797Z,101198.03
2022-10-26T19:34:07.552Z,101190.22
2022-10-26T19:36:34.486Z,101195.56
2022-10-26T19:39:01.609Z,101189.22
2022-10-26T19:41:32.361Z,101194.34
2022-10-26T19:46:45.907Z,101188.97
2022-10-26T19:49:17.860Z,101195.31
2022-10-26T19:51:47.984Z,101199.03
2022-10-26T19:54:19.363Z,101199.22
2022-10-26T19:56:45.974Z,101199.41
2022-10-26T19:59:13.014Z,101209.22
2022-10-26T20:01:52.226Z,101206.56
2022-10-26T20:04:19.038Z,101206.38
2022-10-26T20:06:54.627Z,101209.22
2022-10-26T20:09:21.255Z,101213.28
2022-10-26T20:11:58.033Z,101206.72
2022-10-26T20:14:38.940Z,101213.88
2022-10-26T20:17:06.332Z,101218.56
2022-10-26T20:19:33.310Z,101219.41
2022-10-26T20:22:01.756Z,101221.44
2022-10-26T20:24:28.399Z,101218.31
2022-10-26T20:26:56.312Z,101218.72
2022-10-26T20:29:23.044Z,101227.09
2022-10-26T20:31:53.769Z,101220.31
2022-10-26T20:34:22.573Z,101227.47
2022-10-26T20:36:49.186Z,101222.16
2022-10-26T20:39:16.039Z,101233.63
2022-10-26T20:41:46.083Z,101216.81
2022-10-26T20:44:22.414Z,101224.81
2022-10-26T20:46:49.579Z,101222.16
2022-10-26T20:49:16.383Z,101218.03
2022-10-26T20:52:08.700Z,101227.03
2022-10-26T20:54:41.619Z,101218.41
2022-10-26T20:57:12.685Z,101226.59
2022-10-26T20:59:48.129Z,101223.28
2022-10-26T21:02:14.871Z,101226.13
2022-10-26T21:04:41.495Z,101224.06
2022-10-26T21:07:08.485Z,101226.91
2022-10-26T21:09:36.689Z,101224.63
2022-10-26T21:12:03.740Z,101230.13
2022-10-26T21:14:30.598Z,101227.69
2022-10-26T21:16:57.182Z,101240.34
2022-10-26T21:19:24.009Z,101249.16
2022-10-26T21:21:50.872Z,101252.22
2022-10-26T21:24:17.798Z,101240.75
2022-10-26T21:26:44.822Z,101236.41
2022-10-26T21:29:11.641Z,101235.41
2022-10-26T21:31:40.589Z,101231.72
2022-10-26T21:34:07.327Z,101224.56
2022-10-26T21:36:34.115Z,101228.25
2022-10-26T21:39:00.982Z,101238.06
2022-10-26T21:41:28.552Z,101241.94
2022-10-26T21:44:03.511Z,101240.09
2022-10-26T21:46:36.017Z,101241.31
2022-10-26T21:49:03.360Z,101247.00
2022-10-26T21:51:31.525Z,101242.69
2022-10-26T21:53:58.793Z,101240.00
2022-10-26T21:56:26.202Z,101230.41
2022-10-26T21:58:53.329Z,101235.09
2022-10-26T22:01:21.476Z,101234.66
2022-10-26T22:03:49.315Z,101232.31
2022-10-26T22:08:45.076Z,101228.94
2022-10-26T22:11:15.598Z,101224.63
2022-10-26T22:13:43.856Z,101224.81
2022-10-26T22:16:11.890Z,101224.00
2022-10-26T22:18:40.083Z,101220.72
2022-10-26T22:21:07.490Z,101222.72
2022-10-26T22:23:38.915Z,101213.91
2022-10-26T22:26:24.275Z,101223.53
2022-10-26T22:28:52.265Z,101226.41
2022-10-26T22:31:20.195Z,101223.09
2022-10-26T22:33:50.913Z,101223.09
2022-10-26T22:36:17.474Z,101228.03
2022-10-26T22:38:44.185Z,101222.53
2022-10-26T22:41:11.061Z,101218.03
2022-10-26T22:43:37.786Z,101220.72
2022-10-26T22:46:10.249Z,101219.88
2022-10-26T22:48:37.283Z,101219.88
2022-10-26T22:51:11.973Z,101222.53
2022-10-26T22:53:38.784Z,101216.38
2022-10-26T22:56:06.619Z,101219.22
2022-10-26T22:58:34.013Z,101225.59
2022-10-26T23:01:03.836Z,101232.09
2022-10-26T23:03:30.533Z,101228.59
2022-10-26T23:05:58.126Z,101225.13
2022-10-26T23:08:24.884Z,101220.00
2022-10-26T23:10:51.514Z,101224.50
2022-10-26T23:13:18.192Z,101227.34
2022-10-26T23:15:44.992Z,101222.84
2022-10-26T23:18:11.599Z,101225.50
2022-10-26T23:20:38.313Z,101222.84
2022-10-26T23:23:04.992Z,101214.69
2022-10-26T23:25:31.680Z,101213.84
2022-10-26T23:27:58.511Z,101217.34
2022-10-26T23:30:25.243Z,101211.19
2022-10-26T23:32:52.080Z,101199.72
2022-10-26T23:35:19.185Z,101216.53
2022-10-26T23:37:45.840Z,101207.72
2022-10-26T23:40:12.746Z,101205.50
2022-10-26T23:42:39.339Z,101203.84
2022-10-26T23:45:06.051Z,101202.00
2022-10-26T23:47:32.657Z,101199.34
2022-10-26T23:49:59.331Z,101202.00
2022-10-26T23:52:26.133Z,101196.88
2022-10-26T23:54:52.758Z,101203.00
2022-10-26T23:57:27.459Z,101202.81
